createdAt,value
2019-05-06T00:01:12.486Z,98776.13
2019-05-06T00:03:16.429Z,98776.97
2019-05-06T00:05:20.216Z,98779.87
2019-05-06T00:07:24.355Z,98779.88
2019-05-06T00:09:28.120Z,98783.21
2019-05-06T00:11:31.912Z,98779.24
2019-05-06T00:13:35.801Z,98781.00
2019-05-06T00:15:39.710Z,98776.77
2019-05-06T00:17:44.533Z,98775.50
2019-05-06T00:19:48.421Z,98770.73
2019-05-06T00:21:54.064Z,98773.22
2019-05-06T00:23:58.012Z,98774.45
2019-05-06T00:26:26.853Z,98779.34
2019-05-06T00:28:37.648Z,98776.11
2019-05-06T00:30:43.854Z,98782.45
2019-05-06T00:32:47.716Z,98777.67
2019-05-06T00:34:51.591Z,98777.78
2019-05-06T00:36:55.441Z,98779.13
2019-05-06T00:39:04.612Z,98775.09
2019-05-06T00:41:11.320Z,98774.76
2019-05-06T00:43:15.124Z,98783.77
2019-05-06T00:45:18.932Z,98782.53
2019-05-06T00:47:28.649Z,98787.30
2019-05-06T00:49:34.396Z,98791.24
2019-05-06T00:51:37.934Z,98789.75
2019-05-06T00:53:45.191Z,98790.88
2019-05-06T00:55:49.028Z,98786.20
2019-05-06T00:57:54.446Z,98788.35
2019-05-06T00:59:58.391Z,98791.05
2019-05-06T01:02:04.464Z,98789.26
2019-05-06T01:04:07.704Z,98789.47
2019-05-06T01:06:11.508Z,98792.89
2019-05-06T01:08:15.318Z,98789.87
2019-05-06T01:10:19.357Z,98791.94
2019-05-06T01:12:24.003Z,98795.03
2019-05-06T01:14:44.271Z,98792.44
2019-05-06T01:16:48.059Z,98795.53
2019-05-06T01:18:54.029Z,98793.56
2019-05-06T01:21:14.589Z,98794.80
2019-05-06T01:23:18.099Z,98796.86
2019-05-06T01:25:23.749Z,98796.63
2019-05-06T01:27:27.513Z,98794.45
2019-05-06T01:29:31.320Z,98796.52
2019-05-06T01:31:42.877Z,98802.41
2019-05-06T01:33:40.686Z,98796.58
2019-05-06T01:35:44.522Z,98800.33
2019-05-06T01:37:49.964Z,98799.77
2019-05-06T01:42:20.974Z,98796.74
2019-05-06T01:44:24.858Z,98799.86
2019-05-06T01:46:28.660Z,98799.92
2019-05-06T01:48:47.561Z,98794.30
2019-05-06T01:50:51.351Z,98798.44
2019-05-06T01:52:55.182Z,98798.44
2019-05-06T01:54:58.949Z,98796.99
2019-05-06T01:57:04.453Z,98800.13
2019-05-06T01:59:08.510Z,98809.68
2019-05-06T02:01:14.594Z,98801.59
2019-05-06T02:03:17.994Z,98806.36
2019-05-06T02:05:21.757Z,98811.63
2019-05-06T02:07:25.553Z,98810.91
2019-05-06T02:09:29.373Z,98818.06
2019-05-06T02:11:33.763Z,98817.25
2019-05-06T02:13:37.592Z,98818.27
2019-05-06T02:15:41.397Z,98816.80
2019-05-06T02:17:45.184Z,98820.28
2019-05-06T02:19:49.010Z,98818.06
2019-05-06T02:21:58.182Z,98826.53
2019-05-06T02:24:04.277Z,98821.69
2019-05-06T02:26:08.174Z,98830.99
2019-05-06T02:28:14.289Z,98829.07
2019-05-06T02:30:26.053Z,98831.52
2019-05-06T02:32:50.403Z,98831.61
2019-05-06T02:35:00.068Z,98835.06
2019-05-06T02:37:08.451Z,98833.80
2019-05-06T02:39:14.092Z,98830.87
2019-05-06T02:41:17.744Z,98829.91
2019-05-06T02:43:23.139Z,98831.63
2019-05-06T02:45:27.185Z,98835.04
2019-05-06T02:47:49.996Z,98829.70
2019-05-06T02:49:57.078Z,98836.64
2019-05-06T02:52:03.126Z,98832.69
2019-05-06T02:54:06.570Z,98832.69
2019-05-06T02:56:13.223Z,98841.39
2019-05-06T02:58:15.795Z,98836.97
2019-05-06T03:00:23.686Z,98848.92
2019-05-06T03:02:38.081Z,98844.75
2019-05-06T03:04:33.374Z,98847.30
2019-05-06T03:06:37.143Z,98847.55
2019-05-06T03:08:43.521Z,98845.82
2019-05-06T03:10:47.586Z,98848.93
2019-05-06T03:12:53.901Z,98853.09
2019-05-06T03:14:57.793Z,98847.92
2019-05-06T03:17:03.536Z,98848.55
2019-05-06T03:19:07.118Z,98847.92
2019-05-06T03:21:37.159Z,98846.19
2019-05-06T03:23:44.360Z,98842.18
2019-05-06T03:25:48.163Z,98845.83
2019-05-06T03:27:53.241Z,98843.05
2019-05-06T03:29:57.083Z,98845.36
2019-05-06T03:32:06.053Z,98847.45
2019-05-06T03:34:26.364Z,98849.25
2019-05-06T03:36:18.519Z,98851.94
2019-05-06T03:38:17.512Z,98846.88
2019-05-06T03:40:23.020Z,98853.08
2019-05-06T03:42:26.847Z,98851.05
2019-05-06T03:44:33.083Z,98854.37
2019-05-06T03:46:54.116Z,98856.55
2019-05-06T03:49:03.659Z,98862.50
2019-05-06T03:51:07.089Z,98862.69
2019-05-06T03:53:13.997Z,98860.55
2019-05-06T03:55:18.087Z,98867.05
2019-05-06T03:57:24.010Z,98865.66
2019-05-06T03:59:33.247Z,98866.44
2019-05-06T04:01:35.571Z,98860.63
2019-05-06T04:03:46.924Z,98868.88
2019-05-06T04:05:45.502Z,98868.58
2019-05-06T04:07:49.324Z,98865.63
2019-05-06T04:09:54.149Z,98862.13
2019-05-06T04:11:59.137Z,98870.54
2019-05-06T04:14:06.316Z,98872.85
2019-05-06T04:16:19.008Z,98864.47
2019-05-06T04:18:24.119Z,98869.80
2019-05-06T04:20:45.561Z,98870.82
2019-05-06T04:23:07.385Z,98867.11
2019-05-06T04:25:34.035Z,98870.05
2019-05-06T04:27:48.083Z,98870.77
2019-05-06T04:29:54.519Z,98877.17
2019-05-06T04:31:58.578Z,98869.92
2019-05-06T04:34:12.819Z,98876.06
2019-05-06T04:36:14.103Z,98881.69
2019-05-06T04:38:19.141Z,98880.25
2019-05-06T04:40:23.776Z,98873.97
2019-05-06T04:42:27.944Z,98877.41
2019-05-06T04:44:33.111Z,98881.58
2019-05-06T04:46:44.318Z,98891.34
2019-05-06T04:48:54.177Z,98885.44
2019-05-06T04:50:58.245Z,98894.15
2019-05-06T04:53:05.414Z,98888.76
2019-05-06T04:55:09.912Z,98896.84
2019-05-06T04:57:14.929Z,98897.98
2019-05-06T04:59:18.764Z,98901.30
2019-05-06T05:01:25.829Z,98899.27
2019-05-06T05:03:30.021Z,98903.43
2019-05-06T05:05:34.089Z,98900.85
2019-05-06T05:07:37.893Z,98896.93
2019-05-06T05:09:42.957Z,98901.39
2019-05-06T05:12:09.885Z,98897.46
2019-05-06T05:14:45.004Z,98903.91
2019-05-06T05:17:13.729Z,98903.36
2019-05-06T05:19:18.146Z,98900.72
2019-05-06T05:21:22.903Z,98909.05
2019-05-06T05:23:26.893Z,98906.77
2019-05-06T05:25:32.731Z,98907.94
2019-05-06T05:27:36.530Z,98903.28
2019-05-06T05:29:42.354Z,98911.42
2019-05-06T05:31:46.229Z,98912.16
2019-05-06T05:33:50.116Z,98912.57
2019-05-06T05:35:54.146Z,98916.73
2019-05-06T05:37:58.136Z,98917.39
2019-05-06T05:40:03.010Z,98917.50
2019-05-06T05:42:17.773Z,98922.29
2019-05-06T05:44:25.277Z,98924.05
2019-05-06T05:46:29.511Z,98927.81
2019-05-06T05:49:02.883Z,98931.79
2019-05-06T05:51:06.918Z,98927.13
2019-05-06T05:53:12.187Z,98925.80
2019-05-06T05:55:15.993Z,98929.34
2019-05-06T05:57:19.787Z,98924.81
2019-05-06T05:59:23.527Z,98929.08
2019-05-06T06:01:27.394Z,98935.22
2019-05-06T06:03:32.458Z,98930.33
2019-05-06T06:05:36.354Z,98930.14
2019-05-06T06:07:42.129Z,98930.36
2019-05-06T06:09:59.656Z,98934.95
2019-05-06T06:12:06.148Z,98936.30
2019-05-06T06:14:33.173Z,98941.73
2019-05-06T06:17:02.066Z,98943.07
2019-05-06T06:19:13.364Z,98941.02
2019-05-06T06:21:45.445Z,98937.56
2019-05-06T06:23:52.749Z,98937.88
2019-05-06T06:25:56.073Z,98931.97
2019-05-06T06:27:59.957Z,98935.17
2019-05-06T06:30:04.050Z,98935.99
2019-05-06T06:32:15.516Z,98934.03
2019-05-06T06:34:38.302Z,98931.53
2019-05-06T06:36:49.403Z,98940.45
2019-05-06T06:39:08.365Z,98940.84
2019-05-06T06:41:12.224Z,98940.76
2019-05-06T06:43:20.082Z,98942.63
2019-05-06T06:45:23.873Z,98939.93
2019-05-06T06:47:27.964Z,98942.09
2019-05-06T06:49:32.893Z,98941.03
2019-05-06T06:51:36.873Z,98935.91
2019-05-06T06:53:42.121Z,98943.89
2019-05-06T06:55:46.023Z,98942.21
2019-05-06T06:58:11.982Z,98943.98
2019-05-06T07:00:43.871Z,98945.81
2019-05-06T07:03:04.750Z,98946.23
2019-05-06T07:05:28.062Z,98949.13
2019-05-06T07:07:41.241Z,98944.63
2019-05-06T07:09:34.274Z,98944.63
2019-05-06T07:11:38.194Z,98947.67
2019-05-06T07:13:49.772Z,98948.47
2019-05-06T07:15:54.568Z,98954.72
2019-05-06T07:17:58.357Z,98952.34
2019-05-06T07:20:05.442Z,98953.46
2019-05-06T07:22:09.154Z,98955.66
2019-05-06T07:24:13.216Z,98953.55
2019-05-06T07:26:18.657Z,98955.52
2019-05-06T07:28:22.899Z,98949.59
2019-05-06T07:30:33.052Z,98960.52
2019-05-06T07:32:38.846Z,98959.05
2019-05-06T07:34:42.557Z,98959.66
2019-05-06T07:36:46.566Z,98954.11
2019-05-06T07:38:52.721Z,98962.03
2019-05-06T07:41:05.561Z,98955.88
2019-05-06T07:43:27.202Z,98952.73
2019-05-06T07:45:38.665Z,98959.59
2019-05-06T07:48:07.485Z,98962.26
2019-05-06T07:50:13.029Z,98962.76
2019-05-06T07:52:17.445Z,98967.00
2019-05-06T07:54:22.053Z,98964.47
2019-05-06T07:56:25.930Z,98961.38
2019-05-06T07:58:32.243Z,98956.14
2019-05-06T08:00:36.511Z,98965.88
2019-05-06T08:02:40.256Z,98964.50
2019-05-06T08:04:44.149Z,98964.95
2019-05-06T08:06:47.866Z,98964.84
2019-05-06T08:08:53.711Z,98957.83
2019-05-06T08:10:59.234Z,98960.25
2019-05-06T08:13:09.008Z,98956.63
2019-05-06T08:15:13.566Z,98958.41
2019-05-06T08:17:23.521Z,98958.24
2019-05-06T08:19:27.459Z,98956.28
2019-05-06T08:21:33.784Z,98955.59
2019-05-06T08:23:45.526Z,98950.97
2019-05-06T08:25:54.356Z,98956.72
2019-05-06T08:27:56.238Z,98960.87
2019-05-06T08:30:02.468Z,98959.08
2019-05-06T08:32:05.908Z,98958.64
2019-05-06T08:34:09.633Z,98965.28
2019-05-06T08:36:18.547Z,98960.02
2019-05-06T08:38:22.669Z,98949.66
2019-05-06T08:40:26.635Z,98947.40
2019-05-06T08:42:32.771Z,98949.99
2019-05-06T08:44:35.962Z,98950.16
2019-05-06T08:46:39.757Z,98946.45
2019-05-06T08:48:43.666Z,98947.89
2019-05-06T08:51:04.459Z,98942.34
2019-05-06T08:53:13.958Z,98943.86
2019-05-06T08:55:25.940Z,98951.41
2019-05-06T08:57:29.768Z,98947.58
2019-05-06T08:59:33.578Z,98953.55
2019-05-06T09:01:42.688Z,98950.52
2019-05-06T09:03:46.466Z,98952.19
2019-05-06T09:05:56.108Z,98946.46
2019-05-06T09:07:59.952Z,98952.39
2019-05-06T09:10:05.325Z,98950.18
2019-05-06T09:12:09.196Z,98949.27
2019-05-06T09:14:13.945Z,98948.64
2019-05-06T09:16:17.994Z,98948.38
2019-05-06T09:18:23.931Z,98942.12
2019-05-06T09:20:27.217Z,98940.83
2019-05-06T09:22:32.639Z,98934.31
2019-05-06T09:24:36.462Z,98932.88
2019-05-06T09:26:52.246Z,98929.47
2019-05-06T09:29:05.842Z,98922.88
2019-05-06T09:31:23.000Z,98923.31
2019-05-06T09:33:33.149Z,98928.41
2019-05-06T09:35:36.959Z,98924.69
2019-05-06T09:37:42.932Z,98916.34
2019-05-06T09:39:46.447Z,98912.67
2019-05-06T09:41:50.254Z,98916.25
2019-05-06T09:43:53.943Z,98912.77
2019-05-06T09:45:57.696Z,98909.78
2019-05-06T09:48:16.747Z,98907.58
2019-05-06T09:50:46.092Z,98909.42
2019-05-06T09:52:49.446Z,98908.80
2019-05-06T09:55:24.431Z,98901.13
2019-05-06T09:57:33.397Z,98901.70
2019-05-06T09:59:37.244Z,98896.69
2019-05-06T10:01:43.530Z,98900.18
2019-05-06T10:03:47.598Z,98898.59
2019-05-06T10:05:53.137Z,98896.51
2019-05-06T10:07:57.213Z,98895.07
2019-05-06T10:10:01.073Z,98900.27
2019-05-06T10:12:05.077Z,98893.28
2019-05-06T10:14:08.993Z,98900.03
2019-05-06T10:16:13.136Z,98895.67
2019-05-06T10:18:17.151Z,98899.73
2019-05-06T10:20:22.342Z,98889.00
2019-05-06T10:22:26.120Z,98890.05
2019-05-06T10:24:32.249Z,98885.58
2019-05-06T10:26:43.031Z,98876.82
2019-05-06T10:29:18.444Z,98881.64
2019-05-06T10:31:22.453Z,98877.33
2019-05-06T10:33:27.338Z,98879.50
2019-05-06T10:35:32.309Z,98875.23
2019-05-06T10:38:08.686Z,98877.42
2019-05-06T10:40:18.489Z,98878.46
2019-05-06T10:42:26.567Z,98876.37
2019-05-06T10:44:42.600Z,98877.40
2019-05-06T10:46:45.466Z,98875.46
2019-05-06T10:48:49.255Z,98877.03
2019-05-06T10:50:56.095Z,98875.59
2019-05-06T10:53:20.934Z,98873.33
2019-05-06T10:55:25.381Z,98885.27
2019-05-06T10:57:33.936Z,98889.00
2019-05-06T10:59:37.821Z,98887.25
2019-05-06T11:01:42.967Z,98889.08
2019-05-06T11:03:46.865Z,98886.14
2019-05-06T11:05:53.507Z,98879.98
2019-05-06T11:07:57.470Z,98884.92
2019-05-06T11:10:02.616Z,98883.64
2019-05-06T11:12:06.540Z,98887.59
2019-05-06T11:14:12.664Z,98885.61
2019-05-06T11:16:16.989Z,98882.45
2019-05-06T11:18:23.411Z,98880.08
2019-05-06T11:20:26.521Z,98884.84
2019-05-06T11:22:32.752Z,98877.30
2019-05-06T11:24:36.041Z,98877.34
2019-05-06T11:26:39.784Z,98879.52
2019-05-06T11:28:51.855Z,98876.82
2019-05-06T11:31:09.284Z,98875.23
2019-05-06T11:33:32.942Z,98873.82
2019-05-06T11:36:02.184Z,98875.63
2019-05-06T11:38:09.476Z,98868.77
2019-05-06T11:40:16.884Z,98871.23
2019-05-06T11:42:32.305Z,98877.74
2019-05-06T11:44:24.681Z,98878.80
2019-05-06T11:46:28.453Z,98879.85
2019-05-06T11:48:32.788Z,98878.77
2019-05-06T11:50:36.789Z,98876.08
2019-05-06T11:52:43.412Z,98879.20
2019-05-06T11:54:46.209Z,98876.33
2019-05-06T11:56:54.379Z,98872.41
2019-05-06T11:58:56.353Z,98877.20
2019-05-06T12:01:02.938Z,98874.51
2019-05-06T12:03:06.655Z,98874.84
2019-05-06T12:05:10.915Z,98869.47
2019-05-06T12:07:16.117Z,98866.25
2019-05-06T12:09:22.112Z,98863.02
2019-05-06T12:11:25.670Z,98861.16
2019-05-06T12:13:30.485Z,98863.31
2019-05-06T12:15:34.200Z,98862.04
2019-05-06T12:17:37.917Z,98852.02
2019-05-06T12:19:43.326Z,98858.14
2019-05-06T12:21:48.218Z,98855.61
2019-05-06T12:23:53.815Z,98856.89
2019-05-06T12:25:57.614Z,98855.30
2019-05-06T12:28:03.026Z,98848.63
2019-05-06T12:30:07.167Z,98854.54
2019-05-06T12:32:22.547Z,98855.21
2019-05-06T12:34:26.251Z,98860.01
2019-05-06T12:36:32.298Z,98860.41
2019-05-06T12:38:37.260Z,98860.88
2019-05-06T12:40:42.884Z,98867.41
2019-05-06T12:42:53.251Z,98863.85
2019-05-06T12:45:03.675Z,98858.15
2019-05-06T12:47:38.591Z,98871.22
2019-05-06T12:49:42.747Z,98861.98
2019-05-06T12:51:46.639Z,98859.03
2019-05-06T12:53:52.712Z,98855.05
2019-05-06T12:55:56.110Z,98854.49
2019-05-06T12:57:59.818Z,98852.41
2019-05-06T13:00:04.419Z,98842.89
2019-05-06T13:02:08.285Z,98837.70
2019-05-06T13:04:13.695Z,98839.83
2019-05-06T13:06:18.647Z,98834.40
2019-05-06T13:08:32.461Z,98840.17
2019-05-06T13:10:28.390Z,98828.90
2019-05-06T13:12:33.659Z,98830.00
2019-05-06T13:14:37.631Z,98836.00
2019-05-06T13:16:42.488Z,98836.22
2019-05-06T13:18:48.517Z,98837.86
2019-05-06T13:20:52.850Z,98842.32
2019-05-06T13:23:08.785Z,98829.70
2019-05-06T13:25:08.182Z,98837.43
2019-05-06T13:27:13.551Z,98828.94
2019-05-06T13:29:22.666Z,98834.71
2019-05-06T13:31:26.551Z,98836.09
2019-05-06T13:34:07.392Z,98840.73
2019-05-06T13:36:13.240Z,98835.75
2019-05-06T13:38:16.819Z,98841.05
2019-05-06T13:40:22.761Z,98837.33
2019-05-06T13:42:28.990Z,98835.02
2019-05-06T13:44:32.769Z,98835.48
2019-05-06T13:46:39.955Z,98832.07
2019-05-06T13:48:49.211Z,98844.25
2019-05-06T13:50:55.689Z,98834.55
2019-05-06T13:53:11.486Z,98836.88
2019-05-06T13:55:12.932Z,98840.59
2019-05-06T13:57:17.500Z,98838.34
2019-05-06T13:59:21.312Z,98842.18
2019-05-06T14:01:26.977Z,98836.97
2019-05-06T14:03:32.222Z,98838.92
2019-05-06T14:05:36.092Z,98839.03
2019-05-06T14:07:39.909Z,98830.32
2019-05-06T14:09:44.723Z,98832.36
2019-05-06T14:11:48.520Z,98828.31
2019-05-06T14:13:52.904Z,98822.09
2019-05-06T14:15:56.840Z,98826.25
2019-05-06T14:18:02.611Z,98825.76
2019-05-06T14:20:07.081Z,98823.03
2019-05-06T14:22:12.507Z,98825.80
2019-05-06T14:24:17.568Z,98818.97
2019-05-06T14:26:27.363Z,98820.35
2019-05-06T14:28:43.189Z,98818.41
2019-05-06T14:30:56.325Z,98823.09
2019-05-06T14:33:00.054Z,98821.97
2019-05-06T14:35:03.959Z,98825.81
2019-05-06T14:37:07.753Z,98829.61
2019-05-06T14:39:20.125Z,98830.13
2019-05-06T14:41:27.346Z,98827.66
2019-05-06T14:43:32.328Z,98825.98
2019-05-06T14:45:36.191Z,98830.06
2019-05-06T14:47:42.362Z,98827.59
2019-05-06T14:49:45.865Z,98828.38
2019-05-06T14:51:49.590Z,98830.27
2019-05-06T14:53:53.324Z,98840.11
2019-05-06T14:55:58.465Z,98836.83
2019-05-06T14:58:04.473Z,98837.95
2019-05-06T15:00:12.105Z,98835.78
2019-05-06T15:02:16.125Z,98834.45
2019-05-06T15:04:19.926Z,98830.36
2019-05-06T15:06:23.731Z,98827.11
2019-05-06T15:08:27.532Z,98828.20
2019-05-06T15:10:32.287Z,98828.50
2019-05-06T15:12:36.692Z,98834.25
2019-05-06T15:14:42.446Z,98830.98
2019-05-06T15:16:46.632Z,98828.53
2019-05-06T15:18:50.367Z,98826.87
2019-05-06T15:20:54.137Z,98823.05
2019-05-06T15:22:57.932Z,98824.16
2019-05-06T15:25:02.416Z,98824.19
2019-05-06T15:27:06.413Z,98822.00
2019-05-06T15:29:12.512Z,98826.94
2019-05-06T15:31:42.074Z,98822.27
2019-05-06T15:33:47.986Z,98831.83
2019-05-06T15:36:16.677Z,98835.06
2019-05-06T15:38:25.981Z,98832.84
2019-05-06T15:40:34.201Z,98838.02
2019-05-06T15:42:35.262Z,98832.20
2019-05-06T15:44:38.989Z,98838.73
2019-05-06T15:46:43.764Z,98840.11
2019-05-06T15:48:47.576Z,98840.66
2019-05-06T15:50:53.272Z,98840.88
2019-05-06T15:52:56.937Z,98838.11
2019-05-06T15:55:03.128Z,98844.94
2019-05-06T15:57:06.334Z,98847.65
2019-05-06T15:59:12.227Z,98852.80
2019-05-06T16:01:15.943Z,98842.37
2019-05-06T16:03:22.434Z,98852.78
2019-05-06T16:05:26.721Z,98846.74
2019-05-06T16:07:34.680Z,98844.81
2019-05-06T16:09:36.074Z,98846.72
2019-05-06T16:11:41.899Z,98851.37
2019-05-06T16:13:45.295Z,98854.34
2019-05-06T16:15:49.104Z,98853.48
2019-05-06T16:17:53.335Z,98843.59
2019-05-06T16:19:57.209Z,98848.77
2019-05-06T16:22:03.919Z,98849.61
2019-05-06T16:24:12.819Z,98847.41
2019-05-06T16:26:16.618Z,98843.30
2019-05-06T16:28:22.509Z,98841.94
2019-05-06T16:30:26.105Z,98848.27
2019-05-06T16:32:29.806Z,98849.66
2019-05-06T16:34:33.711Z,98847.22
2019-05-06T16:36:38.513Z,98852.95
2019-05-06T16:38:43.344Z,98848.84
2019-05-06T16:40:47.133Z,98854.05
2019-05-06T16:42:53.403Z,98848.55
2019-05-06T16:44:56.650Z,98849.34
2019-05-06T16:47:02.699Z,98846.03
2019-05-06T16:49:05.922Z,98848.75
2019-05-06T16:51:09.637Z,98849.26
2019-05-06T16:53:13.348Z,98851.16
2019-05-06T16:55:24.273Z,98850.60
2019-05-06T16:57:28.205Z,98861.48
2019-05-06T16:59:33.466Z,98857.09
2019-05-06T17:01:39.390Z,98858.44
2019-05-06T17:03:48.547Z,98857.58
2019-05-06T17:06:14.134Z,98849.91
2019-05-06T17:08:18.067Z,98858.11
2019-05-06T17:10:22.763Z,98856.71
2019-05-06T17:12:26.674Z,98850.12
2019-05-06T17:14:32.190Z,98859.13
2019-05-06T17:16:36.059Z,98852.86
2019-05-06T17:18:41.793Z,98854.99
2019-05-06T17:20:45.246Z,98854.72
2019-05-06T17:22:49.068Z,98857.44
2019-05-06T17:24:52.993Z,98858.20
2019-05-06T17:26:56.770Z,98857.61
2019-05-06T17:29:23.732Z,98860.64
2019-05-06T17:31:50.375Z,98862.28
2019-05-06T17:33:54.655Z,98862.81
2019-05-06T17:35:58.445Z,98865.75
2019-05-06T17:38:13.543Z,98861.95
2019-05-06T17:40:18.995Z,98861.12
2019-05-06T17:42:22.717Z,98861.92
2019-05-06T17:44:26.434Z,98864.89
2019-05-06T17:46:33.843Z,98865.39
2019-05-06T17:49:06.456Z,98869.46
2019-05-06T17:51:33.841Z,98868.06
2019-05-06T17:53:38.602Z,98873.20
2019-05-06T17:55:43.268Z,98869.37
2019-05-06T17:57:47.057Z,98866.30
2019-05-06T17:59:52.779Z,98866.27
2019-05-06T18:01:59.025Z,98867.34
2019-05-06T18:04:02.791Z,98866.73
2019-05-06T18:06:13.345Z,98870.00
2019-05-06T18:08:12.825Z,98870.23
2019-05-06T18:10:16.880Z,98868.63
2019-05-06T18:12:22.562Z,98876.83
2019-05-06T18:14:26.197Z,98874.63
2019-05-06T18:16:30.234Z,98877.33
2019-05-06T18:18:34.008Z,98879.49
2019-05-06T18:20:39.101Z,98880.53
2019-05-06T18:22:42.954Z,98879.16
2019-05-06T18:24:46.791Z,98888.98
2019-05-06T18:26:52.687Z,98885.12
2019-05-06T18:28:58.491Z,98884.25
2019-05-06T18:31:03.406Z,98892.98
2019-05-06T18:33:07.244Z,98887.70
2019-05-06T18:35:13.085Z,98893.13
2019-05-06T18:37:17.668Z,98893.36
2019-05-06T18:39:22.306Z,98903.41
2019-05-06T18:41:29.191Z,98904.73
2019-05-06T18:43:33.141Z,98896.81
2019-05-06T18:45:37.436Z,98901.44
2019-05-06T18:47:42.204Z,98906.06
2019-05-06T18:49:45.995Z,98901.40
2019-05-06T18:51:51.391Z,98907.89
2019-05-06T18:53:55.263Z,98909.78
2019-05-06T18:55:58.979Z,98914.45
2019-05-06T18:58:02.712Z,98915.77
2019-05-06T19:00:07.063Z,98926.66
2019-05-06T19:02:13.345Z,98920.59
2019-05-06T19:04:24.647Z,98921.08
2019-05-06T19:06:28.479Z,98922.97
2019-05-06T19:08:42.080Z,98923.16
2019-05-06T19:10:46.039Z,98927.83
2019-05-06T19:12:49.896Z,98931.69
2019-05-06T19:14:53.649Z,98929.48
2019-05-06T19:16:57.897Z,98930.55
2019-05-06T19:19:03.822Z,98941.39
2019-05-06T19:21:07.167Z,98943.89
2019-05-06T19:23:12.936Z,98939.80
2019-05-06T19:25:16.580Z,98946.36
2019-05-06T19:27:20.350Z,98947.19
2019-05-06T19:29:24.160Z,98946.12
2019-05-06T19:31:27.951Z,98952.39
2019-05-06T19:33:34.152Z,98955.69
2019-05-06T19:35:37.273Z,98949.09
2019-05-06T19:37:41.006Z,98954.80
2019-05-06T19:39:44.816Z,98949.30
2019-05-06T19:41:48.623Z,98958.81
2019-05-06T19:43:52.511Z,98955.47
2019-05-06T19:45:56.338Z,98954.28
2019-05-06T19:48:00.145Z,98954.41
2019-05-06T19:50:04.489Z,98958.89
2019-05-06T19:52:08.205Z,98955.50
2019-05-06T19:54:12.637Z,98958.08
2019-05-06T19:56:16.475Z,98957.94
2019-05-06T19:58:20.278Z,98963.98
2019-05-06T20:00:25.490Z,98961.05
2019-05-06T20:02:29.323Z,98958.44
2019-05-06T20:04:33.412Z,98959.91
2019-05-06T20:06:56.240Z,98962.47
2019-05-06T20:09:17.407Z,98968.34
2019-05-06T20:11:26.906Z,98969.23
2019-05-06T20:13:32.267Z,98967.01
2019-05-06T20:15:38.414Z,98966.87
2019-05-06T20:17:42.516Z,98967.59
2019-05-06T20:19:46.399Z,98968.00
2019-05-06T20:21:52.568Z,98967.14
2019-05-06T20:23:55.778Z,98967.14
2019-05-06T20:25:59.668Z,98972.72
2019-05-06T20:28:03.824Z,98969.41
2019-05-06T20:30:08.007Z,98978.89
2019-05-06T20:32:12.832Z,98966.27
2019-05-06T20:34:16.625Z,98962.38
2019-05-06T20:36:22.622Z,98960.58
2019-05-06T20:38:25.983Z,98961.83
2019-05-06T20:40:32.443Z,98961.95
2019-05-06T20:42:35.150Z,98964.80
2019-05-06T20:44:38.930Z,98959.45
2019-05-06T20:46:42.974Z,98960.63
2019-05-06T20:48:46.840Z,98960.91
2019-05-06T20:50:52.359Z,98967.83
2019-05-06T20:52:56.258Z,98961.67
2019-05-06T20:55:00.070Z,98964.96
2019-05-06T20:57:03.985Z,98965.22
2019-05-06T20:59:07.817Z,98957.70
2019-05-06T21:01:11.670Z,98955.78
2019-05-06T21:03:15.421Z,98959.66
2019-05-06T21:05:19.215Z,98957.81
2019-05-06T21:07:23.213Z,98956.25
2019-05-06T21:09:27.034Z,98956.48
2019-05-06T21:11:32.529Z,98958.09
2019-05-06T21:13:36.479Z,98961.42
2019-05-06T21:15:40.276Z,98956.30
2019-05-06T21:17:44.090Z,98959.31
2019-05-06T21:19:47.992Z,98956.61
2019-05-06T21:21:52.744Z,98954.68
2019-05-06T21:23:56.939Z,98956.73
2019-05-06T21:26:03.096Z,98966.00
2019-05-06T21:28:06.420Z,98965.08
2019-05-06T21:30:10.545Z,98964.87
2019-05-06T21:32:14.591Z,98960.48
2019-05-06T21:34:18.443Z,98960.81
2019-05-06T21:36:23.040Z,98952.38
2019-05-06T21:38:26.936Z,98962.63
2019-05-06T21:40:32.304Z,98958.34
2019-05-06T21:42:36.462Z,98958.55
2019-05-06T21:44:40.374Z,98948.23
2019-05-06T21:46:44.178Z,98950.05
2019-05-06T21:48:48.041Z,98957.73
2019-05-06T21:50:52.289Z,98951.39
2019-05-06T21:52:56.196Z,98954.58
2019-05-06T21:55:02.396Z,98960.53
2019-05-06T21:57:05.650Z,98956.56
2019-05-06T21:59:09.485Z,98955.73
2019-05-06T22:01:13.411Z,98958.38
2019-05-06T22:03:17.294Z,98960.86
2019-05-06T22:05:22.682Z,98957.15
2019-05-06T22:07:26.634Z,98951.84
2019-05-06T22:09:32.306Z,98955.66
2019-05-06T22:11:36.054Z,98950.08
2019-05-06T22:13:42.384Z,98952.62
2019-05-06T22:15:45.574Z,98948.00
2019-05-06T22:17:49.368Z,98951.11
2019-05-06T22:19:53.218Z,98952.07
2019-05-06T22:22:00.439Z,98955.77
2019-05-06T22:24:06.076Z,98950.55
2019-05-06T22:26:15.597Z,98945.59
2019-05-06T22:28:15.405Z,98956.04
2019-05-06T22:30:23.705Z,98955.55
2019-05-06T22:32:26.065Z,98950.80
2019-05-06T22:34:29.888Z,98954.69
2019-05-06T22:36:33.678Z,98951.89
2019-05-06T22:38:37.470Z,98944.83
2019-05-06T22:40:42.514Z,98946.63
2019-05-06T22:42:47.327Z,98945.09
2019-05-06T22:44:51.144Z,98941.89
2019-05-06T22:46:54.933Z,98947.97
2019-05-06T22:48:58.750Z,98949.67
2019-05-06T22:51:02.784Z,98949.12
2019-05-06T22:53:07.570Z,98945.91
2019-05-06T22:55:12.977Z,98946.00
2019-05-06T22:57:16.921Z,98945.39
2019-05-06T22:59:24.389Z,98950.31
2019-05-06T23:01:49.375Z,98948.27
2019-05-06T23:03:53.151Z,98945.98
2019-05-06T23:05:56.929Z,98946.20
2019-05-06T23:08:02.814Z,98947.47
2019-05-06T23:10:07.038Z,98943.74
2019-05-06T23:12:12.294Z,98946.59
2019-05-06T23:14:28.011Z,98950.80
2019-05-06T23:16:21.752Z,98950.28
2019-05-06T23:18:25.599Z,98948.75
2019-05-06T23:20:29.382Z,98950.33
2019-05-06T23:22:33.175Z,98942.92
2019-05-06T23:24:37.078Z,98946.27
2019-05-06T23:26:40.887Z,98944.50
2019-05-06T23:28:44.700Z,98948.46
2019-05-06T23:30:48.572Z,98940.98
2019-05-06T23:32:52.978Z,98944.86
2019-05-06T23:34:56.827Z,98948.41
2019-05-06T23:37:25.372Z,98946.44
2019-05-06T23:40:06.798Z,98947.59
2019-05-06T23:42:48.778Z,98950.11
2019-05-06T23:45:29.855Z,98949.59
2019-05-06T23:48:12.050Z,98949.91
2019-05-06T23:50:52.109Z,98948.55
2019-05-06T23:53:32.665Z,98948.45
2019-05-06T23:56:13.141Z,98942.11
2019-05-06T23:58:15.551Z,98945.35
